sensor_id;sensor_type;location;lat;lon;timestamp;P1;durP1;ratioP1;P2;durP2;ratioP2
16073;SDS011;8141;52.664;5.074;2023-03-01T00:01:27;3.27;;;2.60;;
16073;SDS011;8141;52.664;5.074;2023-03-01T00:03:59;4.27;;;3.33;;
16073;SDS011;8141;52.664;5.074;2023-03-01T00:06:27;3.50;;;2.73;;
16073;SDS011;8141;52.664;5.074;2023-03-01T00:08:56;3.43;;;2.60;;
16073;SDS011;8141;52.664;5.074;2023-03-01T00:11:25;3.03;;;2.67;;
16073;SDS011;8141;52.664;5.074;2023-03-01T00:13:56;3.60;;;2.63;;
16073;SDS011;8141;52.664;5.074;2023-03-01T00:16:27;3.47;;;2.63;;
16073;SDS011;8141;52.664;5.074;2023-03-01T00:18:59;3.07;;;2.40;;
16073;SDS011;8141;52.664;5.074;2023-03-01T00:21:28;3.93;;;2.97;;
16073;SDS011;8141;52.664;5.074;2023-03-01T00:23:57;3.93;;;2.60;;
16073;SDS011;8141;52.664;5.074;2023-03-01T00:26:26;3.53;;;2.60;;
16073;SDS011;8141;52.664;5.074;2023-03-01T00:28:56;4.10;;;3.20;;
16073;SDS011;8141;52.664;5.074;2023-03-01T00:31:25;3.20;;;2.67;;
16073;SDS011;8141;52.664;5.074;2023-03-01T00:33:57;3.90;;;2.80;;
16073;SDS011;8141;52.664;5.074;2023-03-01T00:36:29;3.23;;;2.53;;
16073;SDS011;8141;52.664;5.074;2023-03-01T00:39:00;3.73;;;2.97;;
16073;SDS011;8141;52.664;5.074;2023-03-01T00:41:30;5.50;;;2.50;;
16073;SDS011;8141;52.664;5.074;2023-03-01T00:44:00;3.27;;;2.83;;
16073;SDS011;8141;52.664;5.074;2023-03-01T00:46:29;4.23;;;2.63;;
16073;SDS011;8141;52.664;5.074;2023-03-01T00:48:59;3.20;;;2.63;;
16073;SDS011;8141;52.664;5.074;2023-03-01T00:51:28;4.10;;;2.87;;
16073;SDS011;8141;52.664;5.074;2023-03-01T00:53:57;3.90;;;3.10;;
16073;SDS011;8141;52.664;5.074;2023-03-01T00:56:27;4.20;;;2.70;;
16073;SDS011;8141;52.664;5.074;2023-03-01T00:58:56;4.83;;;3.40;;
16073;SDS011;8141;52.664;5.074;2023-03-01T01:01:26;3.03;;;2.40;;
16073;SDS011;8141;52.664;5.074;2023-03-01T01:03:57;2.87;;;2.50;;
16073;SDS011;8141;52.664;5.074;2023-03-01T01:06:29;3.33;;;2.60;;
16073;SDS011;8141;52.664;5.074;2023-03-01T01:09:00;3.17;;;2.53;;
16073;SDS011;8141;52.664;5.074;2023-03-01T01:11:30;3.30;;;2.77;;
16073;SDS011;8141;52.664;5.074;2023-03-01T01:13:58;4.03;;;2.90;;
16073;SDS011;8141;52.664;5.074;2023-03-01T01:16:27;3.30;;;2.50;;
16073;SDS011;8141;52.664;5.074;2023-03-01T01:18:56;3.20;;;2.57;;
16073;SDS011;8141;52.664;5.074;2023-03-01T01:21:26;3.50;;;2.53;;
16073;SDS011;8141;52.664;5.074;2023-03-01T01:23:54;2.60;;;2.40;;
16073;SDS011;8141;52.664;5.074;2023-03-01T01:26:23;3.13;;;2.20;;
16073;SDS011;8141;52.664;5.074;2023-03-01T01:28:54;2.50;;;2.30;;
16073;SDS011;8141;52.664;5.074;2023-03-01T01:31:23;3.40;;;2.60;;
16073;SDS011;8141;52.664;5.074;2023-03-01T01:33:53;3.17;;;2.40;;
16073;SDS011;8141;52.664;5.074;2023-03-01T01:36:22;3.90;;;2.67;;
16073;SDS011;8141;52.664;5.074;2023-03-01T01:38:52;3.40;;;2.23;;
16073;SDS011;8141;52.664;5.074;2023-03-01T01:41:21;4.20;;;2.77;;
16073;SDS011;8141;52.664;5.074;2023-03-01T01:44:09;3.07;;;2.47;;
16073;SDS011;8141;52.664;5.074;2023-03-01T01:46:41;2.60;;;2.30;;
16073;SDS011;8141;52.664;5.074;2023-03-01T01:49:17;2.97;;;2.50;;
16073;SDS011;8141;52.664;5.074;2023-03-01T01:51:53;3.63;;;2.67;;
16073;SDS011;8141;52.664;5.074;2023-03-01T01:54:34;3.07;;;2.30;;
16073;SDS011;8141;52.664;5.074;2023-03-01T01:57:11;3.37;;;3.07;;
16073;SDS011;8141;52.664;5.074;2023-03-01T01:59:45;3.50;;;2.63;;
16073;SDS011;8141;52.664;5.074;2023-03-01T02:02:19;3.27;;;2.80;;
16073;SDS011;8141;52.664;5.074;2023-03-01T02:04:48;2.97;;;2.40;;
16073;SDS011;8141;52.664;5.074;2023-03-01T02:07:21;3.60;;;2.67;;
16073;SDS011;8141;52.664;5.074;2023-03-01T02:09:52;3.53;;;2.50;;
16073;SDS011;8141;52.664;5.074;2023-03-01T02:12:21;3.90;;;2.43;;
16073;SDS011;8141;52.664;5.074;2023-03-01T02:14:51;2.93;;;2.50;;
16073;SDS011;8141;52.664;5.074;2023-03-01T02:17:20;3.67;;;2.87;;
16073;SDS011;8141;52.664;5.074;2023-03-01T02:19:52;2.90;;;2.60;;
16073;SDS011;8141;52.664;5.074;2023-03-01T02:22:34;4.03;;;3.07;;
16073;SDS011;8141;52.664;5.074;2023-03-01T02:25:12;3.80;;;2.77;;
16073;SDS011;8141;52.664;5.074;2023-03-01T02:28:02;3.80;;;3.20;;
16073;SDS011;8141;52.664;5.074;2023-03-01T02:30:45;3.07;;;2.70;;
16073;SDS011;8141;52.664;5.074;2023-03-01T02:33:30;3.57;;;2.60;;
16073;SDS011;8141;52.664;5.074;2023-03-01T02:36:03;2.73;;;2.43;;
16073;SDS011;8141;52.664;5.074;2023-03-01T02:38:34;2.70;;;2.50;;
16073;SDS011;8141;52.664;5.074;2023-03-01T02:41:02;4.17;;;2.87;;
16073;SDS011;8141;52.664;5.074;2023-03-01T02:43:33;3.40;;;3.10;;
16073;SDS011;8141;52.664;5.074;2023-03-01T02:46:05;3.27;;;2.87;;
16073;SDS011;8141;52.664;5.074;2023-03-01T02:48:39;3.77;;;2.80;;
16073;SDS011;8141;52.664;5.074;2023-03-01T02:51:11;3.80;;;2.70;;
16073;SDS011;8141;52.664;5.074;2023-03-01T02:53:54;3.77;;;3.00;;
16073;SDS011;8141;52.664;5.074;2023-03-01T02:56:33;3.00;;;2.70;;
16073;SDS011;8141;52.664;5.074;2023-03-01T02:59:02;2.77;;;2.50;;
16073;SDS011;8141;52.664;5.074;2023-03-01T03:01:31;3.47;;;2.80;;
16073;SDS011;8141;52.664;5.074;2023-03-01T03:04:04;3.53;;;2.60;;
16073;SDS011;8141;52.664;5.074;2023-03-01T03:06:33;3.17;;;2.87;;
16073;SDS011;8141;52.664;5.074;2023-03-01T03:09:01;3.23;;;2.70;;
16073;SDS011;8141;52.664;5.074;2023-03-01T03:11:30;2.93;;;2.50;;
16073;SDS011;8141;52.664;5.074;2023-03-01T03:13:59;3.00;;;2.70;;
16073;SDS011;8141;52.664;5.074;2023-03-01T03:16:27;3.67;;;2.93;;
16073;SDS011;8141;52.664;5.074;2023-03-01T03:18:57;4.37;;;2.97;;
16073;SDS011;8141;52.664;5.074;2023-03-01T03:21:31;3.03;;;2.67;;
16073;SDS011;8141;52.664;5.074;2023-03-01T03:23:59;4.10;;;3.10;;
16073;SDS011;8141;52.664;5.074;2023-03-01T03:26:27;3.10;;;2.80;;
16073;SDS011;8141;52.664;5.074;2023-03-01T03:28:56;3.70;;;2.80;;
16073;SDS011;8141;52.664;5.074;2023-03-01T03:31:24;3.27;;;2.80;;
16073;SDS011;8141;52.664;5.074;2023-03-01T03:33:53;3.33;;;2.80;;
16073;SDS011;8141;52.664;5.074;2023-03-01T03:36:23;3.27;;;2.77;;
16073;SDS011;8141;52.664;5.074;2023-03-01T03:38:52;3.70;;;3.10;;
16073;SDS011;8141;52.664;5.074;2023-03-01T03:41:20;3.97;;;2.90;;
16073;SDS011;8141;52.664;5.074;2023-03-01T03:43:48;5.20;;;4.07;;
16073;SDS011;8141;52.664;5.074;2023-03-01T03:46:17;3.70;;;3.17;;
16073;SDS011;8141;52.664;5.074;2023-03-01T03:48:45;3.03;;;2.73;;
16073;SDS011;8141;52.664;5.074;2023-03-01T03:51:14;3.23;;;2.93;;
16073;SDS011;8141;52.664;5.074;2023-03-01T03:53:45;3.10;;;2.77;;
16073;SDS011;8141;52.664;5.074;2023-03-01T03:56:13;4.17;;;3.40;;
16073;SDS011;8141;52.664;5.074;2023-03-01T03:58:42;3.67;;;2.90;;
16073;SDS011;8141;52.664;5.074;2023-03-01T04:01:10;4.07;;;3.47;;
16073;SDS011;8141;52.664;5.074;2023-03-01T04:03:38;3.83;;;3.43;;
16073;SDS011;8141;52.664;5.074;2023-03-01T04:06:07;3.63;;;3.30;;
16073;SDS011;8141;52.664;5.074;2023-03-01T04:08:36;3.60;;;3.30;;
16073;SDS011;8141;52.664;5.074;2023-03-01T04:11:05;6.00;;;3.70;;
16073;SDS011;8141;52.664;5.074;2023-03-01T04:13:48;6.97;;;3.30;;
16073;SDS011;8141;52.664;5.074;2023-03-01T04:16:17;3.50;;;3.20;;
16073;SDS011;8141;52.664;5.074;2023-03-01T04:18:46;4.13;;;3.70;;
16073;SDS011;8141;52.664;5.074;2023-03-01T04:21:14;5.40;;;3.67;;
16073;SDS011;8141;52.664;5.074;2023-03-01T04:23:43;4.30;;;3.50;;
16073;SDS011;8141;52.664;5.074;2023-03-01T04:26:12;5.27;;;4.00;;
16073;SDS011;8141;52.664;5.074;2023-03-01T04:28:41;4.60;;;3.70;;
16073;SDS011;8141;52.664;5.074;2023-03-01T04:31:12;4.73;;;4.17;;
16073;SDS011;8141;52.664;5.074;2023-03-01T04:33:45;4.43;;;3.60;;
16073;SDS011;8141;52.664;5.074;2023-03-01T04:36:16;4.37;;;3.97;;
16073;SDS011;8141;52.664;5.074;2023-03-01T04:38:46;4.70;;;3.70;;
16073;SDS011;8141;52.664;5.074;2023-03-01T04:41:16;4.83;;;3.90;;
16073;SDS011;8141;52.664;5.074;2023-03-01T04:43:46;5.87;;;4.37;;
16073;SDS011;8141;52.664;5.074;2023-03-01T04:46:15;5.53;;;3.97;;
16073;SDS011;8141;52.664;5.074;2023-03-01T04:48:45;4.13;;;3.70;;
16073;SDS011;8141;52.664;5.074;2023-03-01T04:51:14;4.07;;;3.67;;
16073;SDS011;8141;52.664;5.074;2023-03-01T04:53:43;4.33;;;3.77;;
16073;SDS011;8141;52.664;5.074;2023-03-01T04:56:11;5.07;;;4.30;;
16073;SDS011;8141;52.664;5.074;2023-03-01T04:58:42;4.40;;;4.00;;
16073;SDS011;8141;52.664;5.074;2023-03-01T05:01:10;4.30;;;3.27;;
16073;SDS011;8141;52.664;5.074;2023-03-01T05:03:42;4.73;;;4.17;;
16073;SDS011;8141;52.664;5.074;2023-03-01T05:06:11;4.33;;;3.93;;
16073;SDS011;8141;52.664;5.074;2023-03-01T05:08:40;4.53;;;4.03;;
16073;SDS011;8141;52.664;5.074;2023-03-01T05:11:09;4.37;;;3.97;;
16073;SDS011;8141;52.664;5.074;2023-03-01T05:13:38;4.23;;;3.83;;
16073;SDS011;8141;52.664;5.074;2023-03-01T05:16:08;4.43;;;4.03;;
16073;SDS011;8141;52.664;5.074;2023-03-01T05:18:38;4.13;;;3.73;;
16073;SDS011;8141;52.664;5.074;2023-03-01T05:21:08;5.50;;;3.90;;
16073;SDS011;8141;52.664;5.074;2023-03-01T05:23:38;4.30;;;3.90;;
16073;SDS011;8141;52.664;5.074;2023-03-01T05:26:07;4.13;;;3.73;;
16073;SDS011;8141;52.664;5.074;2023-03-01T05:28:52;4.00;;;3.60;;
16073;SDS011;8141;52.664;5.074;2023-03-01T05:31:26;4.20;;;3.80;;
16073;SDS011;8141;52.664;5.074;2023-03-01T05:33:57;4.17;;;3.63;;
16073;SDS011;8141;52.664;5.074;2023-03-01T05:36:25;4.67;;;4.10;;
16073;SDS011;8141;52.664;5.074;2023-03-01T05:38:53;3.97;;;3.60;;
16073;SDS011;8141;52.664;5.074;2023-03-01T05:41:22;4.67;;;4.00;;
16073;SDS011;8141;52.664;5.074;2023-03-01T05:43:50;4.73;;;4.20;;
16073;SDS011;8141;52.664;5.074;2023-03-01T05:46:18;6.37;;;4.00;;
16073;SDS011;8141;52.664;5.074;2023-03-01T05:48:48;4.63;;;3.60;;
16073;SDS011;8141;52.664;5.074;2023-03-01T05:51:16;3.83;;;3.43;;
16073;SDS011;8141;52.664;5.074;2023-03-01T05:53:44;7.87;;;3.77;;
16073;SDS011;8141;52.664;5.074;2023-03-01T05:56:12;5.80;;;3.50;;
16073;SDS011;8141;52.664;5.074;2023-03-01T05:58:41;3.80;;;3.33;;
16073;SDS011;8141;52.664;5.074;2023-03-01T06:01:10;3.70;;;3.10;;
16073;SDS011;8141;52.664;5.074;2023-03-01T06:03:40;3.80;;;3.40;;
16073;SDS011;8141;52.664;5.074;2023-03-01T06:06:09;3.23;;;2.93;;
16073;SDS011;8141;52.664;5.074;2023-03-01T06:08:38;3.93;;;3.40;;
16073;SDS011;8141;52.664;5.074;2023-03-01T06:11:06;3.67;;;3.37;;
16073;SDS011;8141;52.664;5.074;2023-03-01T06:13:34;3.53;;;3.20;;
16073;SDS011;8141;52.664;5.074;2023-03-01T06:16:04;3.97;;;3.23;;
16073;SDS011;8141;52.664;5.074;2023-03-01T06:18:33;3.80;;;3.07;;
16073;SDS011;8141;52.664;5.074;2023-03-01T06:21:01;3.10;;;2.80;;
16073;SDS011;8141;52.664;5.074;2023-03-01T06:23:32;3.20;;;2.73;;
16073;SDS011;8141;52.664;5.074;2023-03-01T06:26:04;3.20;;;2.90;;
16073;SDS011;8141;52.664;5.074;2023-03-01T06:28:34;3.10;;;2.73;;
16073;SDS011;8141;52.664;5.074;2023-03-01T06:31:02;2.60;;;2.40;;
16073;SDS011;8141;52.664;5.074;2023-03-01T06:33:35;4.10;;;3.40;;
16073;SDS011;8141;52.664;5.074;2023-03-01T06:36:03;3.77;;;2.93;;
16073;SDS011;8141;52.664;5.074;2023-03-01T06:38:33;3.00;;;2.40;;
16073;SDS011;8141;52.664;5.074;2023-03-01T06:41:02;4.70;;;2.50;;
16073;SDS011;8141;52.664;5.074;2023-03-01T06:43:30;4.47;;;2.80;;
16073;SDS011;8141;52.664;5.074;2023-03-01T06:45:59;2.73;;;2.20;;
16073;SDS011;8141;52.664;5.074;2023-03-01T06:48:27;2.20;;;2.00;;
16073;SDS011;8141;52.664;5.074;2023-03-01T06:50:57;2.23;;;2.00;;
16073;SDS011;8141;52.664;5.074;2023-03-01T06:53:26;2.10;;;1.90;;
16073;SDS011;8141;52.664;5.074;2023-03-01T06:55:56;3.70;;;1.80;;
16073;SDS011;8141;52.664;5.074;2023-03-01T06:58:26;2.03;;;1.83;;
16073;SDS011;8141;52.664;5.074;2023-03-01T07:00:54;2.30;;;1.70;;
16073;SDS011;8141;52.664;5.074;2023-03-01T07:03:23;1.93;;;1.73;;
16073;SDS011;8141;52.664;5.074;2023-03-01T07:05:51;2.73;;;1.70;;
16073;SDS011;8141;52.664;5.074;2023-03-01T07:08:19;3.13;;;1.60;;
16073;SDS011;8141;52.664;5.074;2023-03-01T07:10:48;1.67;;;1.40;;
16073;SDS011;8141;52.664;5.074;2023-03-01T07:13:23;3.07;;;2.00;;
16073;SDS011;8141;52.664;5.074;2023-03-01T07:15:52;2.27;;;1.83;;
16073;SDS011;8141;52.664;5.074;2023-03-01T07:18:21;2.07;;;1.80;;
16073;SDS011;8141;52.664;5.074;2023-03-01T07:20:49;1.90;;;1.70;;
16073;SDS011;8141;52.664;5.074;2023-03-01T07:23:17;1.80;;;1.53;;
16073;SDS011;8141;52.664;5.074;2023-03-01T07:25:50;2.13;;;1.77;;
16073;SDS011;8141;52.664;5.074;2023-03-01T07:28:20;2.80;;;1.70;;
16073;SDS011;8141;52.664;5.074;2023-03-01T07:30:51;2.33;;;1.50;;
16073;SDS011;8141;52.664;5.074;2023-03-01T07:33:19;2.07;;;1.63;;
16073;SDS011;8141;52.664;5.074;2023-03-01T07:35:48;2.00;;;1.80;;
16073;SDS011;8141;52.664;5.074;2023-03-01T07:38:23;2.33;;;1.93;;
16073;SDS011;8141;52.664;5.074;2023-03-01T07:40:52;1.90;;;1.67;;
16073;SDS011;8141;52.664;5.074;2023-03-01T07:43:20;3.50;;;1.53;;
16073;SDS011;8141;52.664;5.074;2023-03-01T07:45:50;3.90;;;2.20;;
16073;SDS011;8141;52.664;5.074;2023-03-01T07:48:18;2.63;;;1.80;;
16073;SDS011;8141;52.664;5.074;2023-03-01T07:50:46;3.23;;;1.90;;
16073;SDS011;8141;52.664;5.074;2023-03-01T07:53:15;2.50;;;1.80;;
16073;SDS011;8141;52.664;5.074;2023-03-01T07:55:43;3.60;;;1.47;;
16073;SDS011;8141;52.664;5.074;2023-03-01T07:58:11;3.17;;;2.37;;
16073;SDS011;8141;52.664;5.074;2023-03-01T08:00:40;2.07;;;1.87;;
16073;SDS011;8141;52.664;5.074;2023-03-01T08:03:09;2.60;;;2.37;;
16073;SDS011;8141;52.664;5.074;2023-03-01T08:05:37;2.87;;;2.50;;
16073;SDS011;8141;52.664;5.074;2023-03-01T08:08:06;2.57;;;2.20;;
16073;SDS011;8141;52.664;5.074;2023-03-01T08:10:36;2.13;;;1.83;;
16073;SDS011;8141;52.664;5.074;2023-03-01T08:13:04;2.63;;;2.00;;
16073;SDS011;8141;52.664;5.074;2023-03-01T08:15:32;3.73;;;1.87;;
16073;SDS011;8141;52.664;5.074;2023-03-01T08:18:00;3.07;;;2.20;;
16073;SDS011;8141;52.664;5.074;2023-03-01T08:20:30;4.17;;;2.13;;
16073;SDS011;8141;52.664;5.074;2023-03-01T08:22:59;2.97;;;2.07;;
16073;SDS011;8141;52.664;5.074;2023-03-01T08:25:27;4.87;;;2.53;;
16073;SDS011;8141;52.664;5.074;2023-03-01T08:27:55;3.27;;;2.00;;
16073;SDS011;8141;52.664;5.074;2023-03-01T08:30:23;3.97;;;1.90;;
16073;SDS011;8141;52.664;5.074;2023-03-01T08:32:51;3.63;;;1.80;;
16073;SDS011;8141;52.664;5.074;2023-03-01T08:35:21;1.93;;;1.80;;
16073;SDS011;8141;52.664;5.074;2023-03-01T08:37:51;3.43;;;2.43;;
16073;SDS011;8141;52.664;5.074;2023-03-01T08:40:19;6.43;;;2.67;;
16073;SDS011;8141;52.664;5.074;2023-03-01T08:42:48;2.83;;;2.37;;
16073;SDS011;8141;52.664;5.074;2023-03-01T08:45:16;3.40;;;3.10;;
16073;SDS011;8141;52.664;5.074;2023-03-01T08:47:45;5.93;;;2.83;;
16073;SDS011;8141;52.664;5.074;2023-03-01T08:50:13;4.27;;;3.60;;
16073;SDS011;8141;52.664;5.074;2023-03-01T08:52:42;6.47;;;3.90;;
16073;SDS011;8141;52.664;5.074;2023-03-01T08:55:11;5.80;;;3.93;;
16073;SDS011;8141;52.664;5.074;2023-03-01T08:57:42;6.43;;;4.50;;
16073;SDS011;8141;52.664;5.074;2023-03-01T09:00:11;6.10;;;4.33;;
16073;SDS011;8141;52.664;5.074;2023-03-01T09:02:41;5.20;;;4.20;;
16073;SDS011;8141;52.664;5.074;2023-03-01T09:05:09;4.53;;;3.13;;
16073;SDS011;8141;52.664;5.074;2023-03-01T09:07:37;5.50;;;4.10;;
16073;SDS011;8141;52.664;5.074;2023-03-01T09:10:06;4.03;;;3.63;;
16073;SDS011;8141;52.664;5.074;2023-03-01T09:12:37;9.77;;;4.17;;
16073;SDS011;8141;52.664;5.074;2023-03-01T09:15:06;5.73;;;3.83;;
16073;SDS011;8141;52.664;5.074;2023-03-01T09:17:35;4.53;;;3.97;;
16073;SDS011;8141;52.664;5.074;2023-03-01T09:20:04;3.93;;;3.43;;
16073;SDS011;8141;52.664;5.074;2023-03-01T09:22:33;3.43;;;3.10;;
16073;SDS011;8141;52.664;5.074;2023-03-01T09:25:01;3.67;;;3.33;;
16073;SDS011;8141;52.664;5.074;2023-03-01T09:27:30;8.37;;;2.83;;
16073;SDS011;8141;52.664;5.074;2023-03-01T09:30:00;4.17;;;2.83;;
16073;SDS011;8141;52.664;5.074;2023-03-01T09:32:29;3.33;;;3.03;;
16073;SDS011;8141;52.664;5.074;2023-03-01T09:34:58;3.83;;;3.40;;
16073;SDS011;8141;52.664;5.074;2023-03-01T09:37:31;3.90;;;3.10;;
16073;SDS011;8141;52.664;5.074;2023-03-01T09:40:01;6.20;;;3.37;;
16073;SDS011;8141;52.664;5.074;2023-03-01T09:42:32;3.30;;;2.80;;
16073;SDS011;8141;52.664;5.074;2023-03-01T09:45:05;4.17;;;2.57;;
16073;SDS011;8141;52.664;5.074;2023-03-01T09:47:38;4.95;;;2.92;;
16073;SDS011;8141;52.664;5.074;2023-03-01T09:50:09;2.50;;;2.30;;
16073;SDS011;8141;52.664;5.074;2023-03-01T09:52:43;3.20;;;2.90;;
16073;SDS011;8141;52.664;5.074;2023-03-01T09:55:17;4.00;;;2.73;;
16073;SDS011;8141;52.664;5.074;2023-03-01T09:57:54;2.43;;;2.23;;
16073;SDS011;8141;52.664;5.074;2023-03-01T10:00:33;4.35;;;2.88;;
16073;SDS011;8141;52.664;5.074;2023-03-01T10:03:09;2.70;;;2.50;;
16073;SDS011;8141;52.664;5.074;2023-03-01T10:05:51;2.60;;;2.40;;
16073;SDS011;8141;52.664;5.074;2023-03-01T10:08:27;2.80;;;2.47;;
16073;SDS011;8141;52.664;5.074;2023-03-01T10:11:03;3.20;;;2.60;;
16073;SDS011;8141;52.664;5.074;2023-03-01T10:13:43;2.60;;;2.20;;
16073;SDS011;8141;52.664;5.074;2023-03-01T10:16:22;2.63;;;2.37;;
16073;SDS011;8141;52.664;5.074;2023-03-01T10:18:58;3.60;;;2.40;;
16073;SDS011;8141;52.664;5.074;2023-03-01T10:21:29;2.73;;;2.20;;
16073;SDS011;8141;52.664;5.074;2023-03-01T10:24:08;4.10;;;2.40;;
16073;SDS011;8141;52.664;5.074;2023-03-01T10:26:44;3.77;;;2.17;;
16073;SDS011;8141;52.664;5.074;2023-03-01T10:29:21;2.33;;;1.87;;
16073;SDS011;8141;52.664;5.074;2023-03-01T10:31:55;3.03;;;1.80;;
16073;SDS011;8141;52.664;5.074;2023-03-01T10:34:26;2.50;;;2.00;;
16073;SDS011;8141;52.664;5.074;2023-03-01T10:36:58;2.23;;;1.83;;
16073;SDS011;8141;52.664;5.074;2023-03-01T10:39:37;2.53;;;1.80;;
16073;SDS011;8141;52.664;5.074;2023-03-01T10:42:28;2.40;;;1.80;;
16073;SDS011;8141;52.664;5.074;2023-03-01T10:45:02;3.43;;;2.23;;
16073;SDS011;8141;52.664;5.074;2023-03-01T10:48:04;3.13;;;2.10;;
16073;SDS011;8141;52.664;5.074;2023-03-01T10:50:39;3.13;;;2.40;;
16073;SDS011;8141;52.664;5.074;2023-03-01T10:53:22;3.07;;;2.37;;
16073;SDS011;8141;52.664;5.074;2023-03-01T10:55:56;2.00;;;1.80;;
16073;SDS011;8141;52.664;5.074;2023-03-01T10:58:28;3.70;;;2.37;;
16073;SDS011;8141;52.664;5.074;2023-03-01T11:00:58;2.63;;;2.00;;
16073;SDS011;8141;52.664;5.074;2023-03-01T11:03:29;2.30;;;2.10;;
16073;SDS011;8141;52.664;5.074;2023-03-01T11:06:04;2.23;;;1.93;;
16073;SDS011;8141;52.664;5.074;2023-03-01T11:08:47;2.70;;;2.17;;
16073;SDS011;8141;52.664;5.074;2023-03-01T11:11:18;3.83;;;2.30;;
16073;SDS011;8141;52.664;5.074;2023-03-01T11:14:02;3.90;;;2.20;;
16073;SDS011;8141;52.664;5.074;2023-03-01T11:16:58;2.03;;;1.83;;
16073;SDS011;8141;52.664;5.074;2023-03-01T11:19:29;3.17;;;1.67;;
16073;SDS011;8141;52.664;5.074;2023-03-01T11:22:00;2.60;;;2.10;;
16073;SDS011;8141;52.664;5.074;2023-03-01T11:24:33;3.63;;;2.20;;
16073;SDS011;8141;52.664;5.074;2023-03-01T11:27:13;2.53;;;1.90;;
16073;SDS011;8141;52.664;5.074;2023-03-01T11:32:18;2.40;;;2.13;;
16073;SDS011;8141;52.664;5.074;2023-03-01T11:34:53;2.37;;;2.07;;
16073;SDS011;8141;52.664;5.074;2023-03-01T11:37:30;4.20;;;3.20;;
16073;SDS011;8141;52.664;5.074;2023-03-01T11:40:07;2.50;;;2.20;;
16073;SDS011;8141;52.664;5.074;2023-03-01T11:42:50;4.63;;;2.23;;
16073;SDS011;8141;52.664;5.074;2023-03-01T11:45:37;2.50;;;2.20;;
16073;SDS011;8141;52.664;5.074;2023-03-01T11:48:31;4.80;;;2.20;;
16073;SDS011;8141;52.664;5.074;2023-03-01T11:51:22;5.63;;;3.00;;
16073;SDS011;8141;52.664;5.074;2023-03-01T11:54:06;5.27;;;2.77;;
16073;SDS011;8141;52.664;5.074;2023-03-01T11:56:46;3.53;;;2.70;;
16073;SDS011;8141;52.664;5.074;2023-03-01T12:02:36;6.82;;;2.38;;
16073;SDS011;8141;52.664;5.074;2023-03-01T12:28:49;5.83;;;5.17;;
16073;SDS011;8141;52.664;5.074;2023-03-01T12:34:32;9.87;;;7.70;;
16073;SDS011;8141;52.664;5.074;2023-03-01T12:37:36;8.13;;;7.03;;
16073;SDS011;8141;52.664;5.074;2023-03-01T12:51:11;9.32;;;5.50;;
16073;SDS011;8141;52.664;5.074;2023-03-01T12:56:16;9.73;;;5.47;;
16073;SDS011;8141;52.664;5.074;2023-03-01T12:58:53;15.37;;;6.03;;
16073;SDS011;8141;52.664;5.074;2023-03-01T13:01:38;10.80;;;6.40;;
16073;SDS011;8141;52.664;5.074;2023-03-01T13:04:20;8.30;;;4.70;;
16073;SDS011;8141;52.664;5.074;2023-03-01T13:07:07;8.57;;;5.17;;
16073;SDS011;8141;52.664;5.074;2023-03-01T13:15:28;10.85;;;5.20;;
16073;SDS011;8141;52.664;5.074;2023-03-01T13:26:00;12.70;;;8.30;;
16073;SDS011;8141;52.664;5.074;2023-03-01T13:34:43;10.90;;;5.67;;
16073;SDS011;8141;52.664;5.074;2023-03-01T13:37:30;11.90;;;6.00;;
16073;SDS011;8141;52.664;5.074;2023-03-01T13:43:29;8.55;;;5.30;;
16073;SDS011;8141;52.664;5.074;2023-03-01T13:48:31;9.73;;;5.27;;
16073;SDS011;8141;52.664;5.074;2023-03-01T13:51:01;9.93;;;5.57;;
16073;SDS011;8141;52.664;5.074;2023-03-01T13:53:33;7.83;;;5.23;;
16073;SDS011;8141;52.664;5.074;2023-03-01T13:56:07;7.90;;;4.63;;
16073;SDS011;8141;52.664;5.074;2023-03-01T14:01:20;5.97;;;4.93;;
16073;SDS011;8141;52.664;5.074;2023-03-01T14:03:53;9.20;;;5.40;;
16073;SDS011;8141;52.664;5.074;2023-03-01T14:06:23;9.67;;;4.60;;
16073;SDS011;8141;52.664;5.074;2023-03-01T14:09:00;7.37;;;3.97;;
16073;SDS011;8141;52.664;5.074;2023-03-01T14:11:49;9.33;;;5.33;;
16073;SDS011;8141;52.664;5.074;2023-03-01T14:14:39;6.95;;;4.57;;
16073;SDS011;8141;52.664;5.074;2023-03-01T14:17:26;8.53;;;4.43;;
16073;SDS011;8141;52.664;5.074;2023-03-01T14:20:22;6.13;;;4.23;;
16073;SDS011;8141;52.664;5.074;2023-03-01T14:22:53;5.67;;;4.00;;
16073;SDS011;8141;52.664;5.074;2023-03-01T14:25:26;8.63;;;4.37;;
16073;SDS011;8141;52.664;5.074;2023-03-01T14:27:58;5.77;;;3.77;;
16073;SDS011;8141;52.664;5.074;2023-03-01T14:30:32;4.83;;;3.13;;
16073;SDS011;8141;52.664;5.074;2023-03-01T14:33:05;8.65;;;3.25;;
16073;SDS011;8141;52.664;5.074;2023-03-01T14:35:53;9.53;;;4.00;;
16073;SDS011;8141;52.664;5.074;2023-03-01T14:38:28;6.93;;;3.90;;
16073;SDS011;8141;52.664;5.074;2023-03-01T14:41:02;6.82;;;3.63;;
16073;SDS011;8141;52.664;5.074;2023-03-01T14:43:33;6.30;;;4.03;;
16073;SDS011;8141;52.664;5.074;2023-03-01T14:46:05;10.50;;;4.60;;
16073;SDS011;8141;52.664;5.074;2023-03-01T14:48:33;6.87;;;4.50;;
16073;SDS011;8141;52.664;5.074;2023-03-01T14:51:03;9.23;;;4.87;;
16073;SDS011;8141;52.664;5.074;2023-03-01T14:53:32;16.63;;;7.20;;
16073;SDS011;8141;52.664;5.074;2023-03-01T14:56:16;13.20;;;6.20;;
16073;SDS011;8141;52.664;5.074;2023-03-01T14:58:45;23.27;;;8.77;;
16073;SDS011;8141;52.664;5.074;2023-03-01T15:01:14;18.17;;;6.30;;
16073;SDS011;8141;52.664;5.074;2023-03-01T15:03:45;17.83;;;7.90;;
16073;SDS011;8141;52.664;5.074;2023-03-01T15:06:17;15.47;;;7.17;;
16073;SDS011;8141;52.664;5.074;2023-03-01T15:08:48;11.77;;;6.00;;
16073;SDS011;8141;52.664;5.074;2023-03-01T15:11:20;12.70;;;6.00;;
16073;SDS011;8141;52.664;5.074;2023-03-01T15:13:51;16.70;;;6.47;;
16073;SDS011;8141;52.664;5.074;2023-03-01T15:16:21;11.30;;;5.63;;
16073;SDS011;8141;52.664;5.074;2023-03-01T15:18:52;11.30;;;5.67;;
16073;SDS011;8141;52.664;5.074;2023-03-01T15:21:25;11.50;;;6.23;;
16073;SDS011;8141;52.664;5.074;2023-03-01T15:23:56;12.87;;;5.57;;
16073;SDS011;8141;52.664;5.074;2023-03-01T15:26:39;10.73;;;6.13;;
16073;SDS011;8141;52.664;5.074;2023-03-01T15:29:11;10.17;;;5.10;;
16073;SDS011;8141;52.664;5.074;2023-03-01T15:31:54;9.80;;;4.27;;
16073;SDS011;8141;52.664;5.074;2023-03-01T15:34:25;8.80;;;4.10;;
16073;SDS011;8141;52.664;5.074;2023-03-01T15:36:57;9.57;;;4.60;;
16073;SDS011;8141;52.664;5.074;2023-03-01T15:39:30;9.63;;;4.30;;
16073;SDS011;8141;52.664;5.074;2023-03-01T15:42:05;14.23;;;4.77;;
16073;SDS011;8141;52.664;5.074;2023-03-01T15:44:37;11.23;;;3.90;;
16073;SDS011;8141;52.664;5.074;2023-03-01T15:47:22;7.63;;;3.87;;
16073;SDS011;8141;52.664;5.074;2023-03-01T15:49:54;9.37;;;4.00;;
16073;SDS011;8141;52.664;5.074;2023-03-01T15:52:26;10.40;;;4.10;;
16073;SDS011;8141;52.664;5.074;2023-03-01T15:54:58;9.50;;;4.50;;
16073;SDS011;8141;52.664;5.074;2023-03-01T15:57:28;8.83;;;4.13;;
16073;SDS011;8141;52.664;5.074;2023-03-01T15:59:57;6.83;;;3.53;;
16073;SDS011;8141;52.664;5.074;2023-03-01T16:02:25;8.93;;;3.80;;
16073;SDS011;8141;52.664;5.074;2023-03-01T16:04:53;7.03;;;4.03;;
16073;SDS011;8141;52.664;5.074;2023-03-01T16:07:22;10.40;;;3.60;;
16073;SDS011;8141;52.664;5.074;2023-03-01T16:09:55;8.90;;;4.03;;
16073;SDS011;8141;52.664;5.074;2023-03-01T16:12:23;5.93;;;3.40;;
16073;SDS011;8141;52.664;5.074;2023-03-01T16:14:51;6.63;;;4.07;;
16073;SDS011;8141;52.664;5.074;2023-03-01T16:17:20;8.87;;;3.67;;
16073;SDS011;8141;52.664;5.074;2023-03-01T16:19:48;6.53;;;3.20;;
16073;SDS011;8141;52.664;5.074;2023-03-01T16:22:16;7.93;;;3.23;;
16073;SDS011;8141;52.664;5.074;2023-03-01T16:24:50;6.60;;;3.23;;
16073;SDS011;8141;52.664;5.074;2023-03-01T16:27:20;7.20;;;3.53;;
16073;SDS011;8141;52.664;5.074;2023-03-01T16:29:48;4.93;;;2.83;;
16073;SDS011;8141;52.664;5.074;2023-03-01T16:32:17;6.83;;;3.13;;
16073;SDS011;8141;52.664;5.074;2023-03-01T16:34:45;14.30;;;3.63;;
16073;SDS011;8141;52.664;5.074;2023-03-01T16:37:15;7.40;;;3.40;;
16073;SDS011;8141;52.664;5.074;2023-03-01T16:39:45;7.67;;;3.30;;
16073;SDS011;8141;52.664;5.074;2023-03-01T16:42:15;6.53;;;3.63;;
16073;SDS011;8141;52.664;5.074;2023-03-01T16:44:45;9.07;;;3.23;;